Time;durP1;ratioP1;P1;durP2;ratioP2;P2;SDS_P1;SDS_P2;PMS_P1;PMS_P2;Temp;Humidity;BMP_temperature;BMP_pressure;BME280_temperature;BME280_humidity;BME280_pressure;Samples;Min_cycle;Max_cycle;Signal;HPM_P1;HPM_P2
2023/03/24 00:01:17;;;;;;;6.83;3.67;;;15.30;72.40;;;;;;4997810;28;20485;-82
2023/03/24 00:03:47;;;;;;;6.43;3.63;;;15.30;72.40;;;;;;5011174;28;20461;-82
2023/03/24 00:06:21;;;;;;;6.80;3.70;;;15.30;72.50;;;;;;5010067;28;20949;-83
2023/03/24 00:08:51;;;;;;;7.57;3.93;;;15.30;72.60;;;;;;5008126;28;21425;-82
2023/03/24 00:11:19;;;;;;;13.20;3.83;;;15.30;72.60;;;;;;5011524;28;20816;-82
2023/03/24 00:13:48;;;;;;;10.67;3.63;;;15.30;72.60;;;;;;5010193;28;20454;-82
2023/03/24 00:16:20;;;;;;;7.00;3.50;;;15.30;72.60;;;;;;5010856;28;20515;-82
2023/03/24 00:18:51;;;;;;;7.00;4.10;;;15.30;72.70;;;;;;5012824;28;20473;-82
2023/03/24 00:21:23;;;;;;;6.30;3.70;;;15.30;72.70;;;;;;5014377;28;20787;-82
2023/03/24 00:23:54;;;;;;;6.10;3.10;;;15.30;72.70;;;;;;5008318;28;20463;-82
2023/03/24 00:26:23;;;;;;;6.00;2.97;;;15.30;72.70;;;;;;5014540;28;20961;-82
2023/03/24 00:28:52;;;;;;;5.20;3.03;;;15.30;72.70;;;;;;5014015;28;20457;-82
2023/03/24 00:31:23;;;;;;;6.43;2.83;;;15.30;72.70;;;;;;5017479;28;20469;-82
2023/03/24 00:33:52;;;;;;;6.33;3.30;;;15.30;72.70;;;;;;5017034;28;20481;-82
2023/03/24 00:36:23;;;;;;;7.80;3.60;;;15.30;72.80;;;;;;5013426;28;20553;-82
2023/03/24 00:38:53;;;;;;;6.07;3.43;;;15.30;72.80;;;;;;5013022;28;20497;-82
2023/03/24 00:41:23;;;;;;;6.63;3.30;;;15.30;72.80;;;;;;5013912;28;20586;-82
2023/03/24 00:43:55;;;;;;;10.27;4.40;;;15.20;72.90;;;;;;5017715;28;20481;-81
2023/03/24 00:46:30;;;;;;;52.93;23.03;;;15.20;72.90;;;;;;5016051;28;21246;-82
2023/03/24 00:49:04;;;;;;;33.70;13.23;;;15.20;73.00;;;;;;4998855;28;20471;-82
2023/03/24 00:51:35;;;;;;;27.83;11.77;;;15.20;73.00;;;;;;5012720;28;21011;-82
2023/03/24 00:54:06;;;;;;;28.30;13.13;;;15.20;73.00;;;;;;5009398;28;20566;-82
2023/03/24 00:56:36;;;;;;;10.50;5.03;;;15.20;73.00;;;;;;5012068;28;20491;-82
2023/03/24 00:59:05;;;;;;;11.20;5.17;;;15.30;72.90;;;;;;4998452;28;20460;-82
2023/03/24 01:01:35;;;;;;;8.60;3.90;;;15.30;72.90;;;;;;5019456;28;20529;-82
2023/03/24 01:04:05;;;;;;;7.40;3.63;;;15.30;72.90;;;;;;5010123;28;20501;-82
2023/03/24 01:06:35;;;;;;;5.83;3.20;;;15.30;72.90;;;;;;5008487;28;21572;-82
2023/03/24 01:09:06;;;;;;;5.73;3.37;;;15.30;72.80;;;;;;5010454;28;20857;-82
2023/03/24 01:11:38;;;;;;;7.83;3.67;;;15.30;72.80;;;;;;4994485;28;20540;-82
2023/03/24 01:14:08;;;;;;;9.63;3.40;;;15.30;72.80;;;;;;5001068;28;20545;-82
2023/03/24 01:16:39;;;;;;;5.57;2.63;;;15.30;72.70;;;;;;5007246;28;20541;-82
2023/03/24 01:19:07;;;;;;;6.80;2.83;;;15.30;72.60;;;;;;5011412;28;20457;-82
2023/03/24 01:21:36;;;;;;;7.47;3.00;;;15.30;72.60;;;;;;4997819;28;20470;-82
2023/03/24 01:24:07;;;;;;;6.10;2.90;;;15.30;72.50;;;;;;5013210;28;20461;-82
2023/03/24 01:26:35;;;;;;;7.60;3.30;;;15.30;72.40;;;;;;5011660;28;20470;-82
2023/03/24 01:29:04;;;;;;;7.67;2.87;;;15.30;72.40;;;;;;4999473;28;20469;-82
2023/03/24 01:31:32;;;;;;;6.90;3.33;;;15.40;72.40;;;;;;5010720;28;20505;-82
2023/03/24 01:34:01;;;;;;;5.90;2.87;;;15.30;72.30;;;;;;5014021;28;20476;-82
2023/03/24 01:36:31;;;;;;;5.00;2.40;;;15.40;72.30;;;;;;5016094;28;20451;-82
2023/03/24 01:39:00;;;;;;;5.07;2.60;;;15.40;72.20;;;;;;5011084;28;20519;-82
2023/03/24 01:41:34;;;;;;;5.83;3.00;;;15.40;72.10;;;;;;5013010;28;20476;-82
2023/03/24 01:44:24;;;;;;;6.73;2.63;;;15.40;72.10;;;;;;5010362;28;20455;-83
2023/03/24 01:46:53;;;;;;;7.27;3.37;;;15.40;72.00;;;;;;5012428;28;20464;-82
2023/03/24 01:49:25;;;;;;;7.33;3.23;;;15.40;72.00;;;;;;5012776;28;20534;-82
2023/03/24 01:51:56;;;;;;;14.10;5.00;;;15.40;71.90;;;;;;5010783;28;20475;-82
2023/03/24 01:54:27;;;;;;;6.07;3.20;;;15.30;71.90;;;;;;5009350;28;20459;-83
2023/03/24 01:57:06;;;;;;;6.33;3.40;;;15.30;71.90;;;;;;5010129;28;20678;-82
2023/03/24 01:59:43;;;;;;;9.53;4.03;;;15.30;71.90;;;;;;5001350;28;20478;-82
2023/03/24 02:02:42;;;;;;;8.07;3.97;;;15.30;71.90;;;;;;4997637;28;20503;-82
2023/03/24 02:05:13;;;;;;;6.57;3.20;;;15.30;71.90;;;;;;4976173;28;20546;-82
2023/03/24 02:07:51;;;;;;;7.70;3.53;;;15.30;71.90;;;;;;4977153;28;20468;-82
2023/03/24 02:10:24;;;;;;;7.93;3.50;;;15.30;71.90;;;;;;4991804;28;20468;-82
2023/03/24 02:12:54;;;;;;;5.30;2.60;;;15.30;71.90;;;;;;4990700;28;20465;-82
2023/03/24 02:15:24;;;;;;;6.10;3.27;;;15.30;71.80;;;;;;4995782;28;21255;-83
2023/03/24 02:18:01;;;;;;;8.53;4.07;;;15.40;71.80;;;;;;4977118;28;20467;-82
2023/03/24 02:20:50;;;;;;;7.63;4.00;;;15.30;71.70;;;;;;4977467;28;20454;-82
2023/03/24 02:23:55;;;;;;;5.70;3.30;;;15.30;71.70;;;;;;4991305;28;20472;-82
2023/03/24 02:26:39;;;;;;;8.47;3.83;;;15.40;71.60;;;;;;4992733;28;20498;-82
2023/03/24 02:29:38;;;;;;;8.90;4.30;;;15.40;71.60;;;;;;4992525;28;20459;-82
2023/03/24 02:32:33;;;;;;;5.70;3.30;;;15.40;71.60;;;;;;5006125;28;20478;-82
2023/03/24 02:35:24;;;;;;;9.70;3.77;;;15.40;71.50;;;;;;5001641;28;20479;-83
2023/03/24 02:38:16;;;;;;;6.40;2.93;;;15.30;71.60;;;;;;5010052;28;20517;-82
2023/03/24 02:40:49;;;;;;;6.30;2.90;;;15.30;71.60;;;;;;4999131;28;20474;-82
2023/03/24 02:43:35;;;;;;;6.27;3.27;;;15.30;71.60;;;;;;4995809;28;20497;-83
2023/03/24 02:46:12;;;;;;;6.93;3.70;;;15.30;71.60;;;;;;5015280;28;20462;-82
2023/03/24 02:48:54;;;;;;;6.93;3.20;;;15.30;71.60;;;;;;5011220;28;20455;-82
2023/03/24 02:51:27;;;;;;;6.27;3.30;;;15.30;71.60;;;;;;5013224;28;20466;-83
2023/03/24 02:54:06;;;;;;;5.70;2.87;;;15.30;71.60;;;;;;4994600;28;20465;-82
2023/03/24 02:56:39;;;;;;;7.87;3.63;;;15.30;71.60;;;;;;5022396;28;20459;-82
2023/03/24 02:59:31;;;;;;;5.50;2.90;;;15.20;71.60;;;;;;5010937;28;20462;-82
2023/03/24 03:02:07;;;;;;;7.90;3.43;;;15.20;71.60;;;;;;5004554;28;21176;-82
2023/03/24 03:04:45;;;;;;;8.23;3.00;;;15.20;71.60;;;;;;5011307;28;20468;-82
2023/03/24 03:07:15;;;;;;;6.13;3.40;;;15.20;71.60;;;;;;5011796;28;20533;-82
2023/03/24 03:09:50;;;;;;;8.30;3.07;;;15.20;71.70;;;;;;5011428;28;20462;-82
2023/03/24 03:12:24;;;;;;;6.57;3.83;;;15.20;71.70;;;;;;5010540;28;20453;-82
2023/03/24 03:14:56;;;;;;;6.60;3.70;;;15.30;71.70;;;;;;4992517;28;20465;-83
2023/03/24 03:17:30;;;;;;;5.20;3.07;;;15.30;71.60;;;;;;5015801;28;20644;-83
2023/03/24 03:20:06;;;;;;;5.70;3.13;;;15.30;71.50;;;;;;5015091;28;20642;-83
2023/03/24 03:22:42;;;;;;;6.13;3.53;;;15.30;71.60;;;;;;4989751;28;20505;-83
2023/03/24 03:25:13;;;;;;;6.80;3.90;;;15.30;71.60;;;;;;5013126;28;21264;-82
2023/03/24 03:27:45;;;;;;;8.23;3.97;;;15.30;71.60;;;;;;5009229;28;20461;-83
2023/03/24 03:30:18;;;;;;;7.00;3.73;;;15.30;71.60;;;;;;5010659;28;20454;-83
2023/03/24 03:32:54;;;;;;;8.00;4.40;;;15.30;71.70;;;;;;5012379;28;20465;-83
2023/03/24 03:35:25;;;;;;;7.10;3.60;;;15.20;71.70;;;;;;5012049;28;20456;-83
2023/03/24 03:37:59;;;;;;;8.07;3.70;;;15.20;71.80;;;;;;5007876;28;21047;-83
2023/03/24 03:40:34;;;;;;;5.63;3.30;;;15.20;71.80;;;;;;5010698;28;20453;-83
2023/03/24 03:43:11;;;;;;;6.30;3.10;;;15.20;71.80;;;;;;5005974;28;20498;-82
2023/03/24 03:45:40;;;;;;;6.57;3.40;;;15.20;71.90;;;;;;5013745;28;20483;-83
2023/03/24 03:48:08;;;;;;;8.73;4.13;;;15.20;71.80;;;;;;5009637;28;20583;-83
2023/03/24 03:50:37;;;;;;;6.37;2.97;;;15.20;71.80;;;;;;5011140;28;20462;-83
2023/03/24 03:53:11;;;;;;;7.13;4.00;;;15.30;71.80;;;;;;4993932;28;20516;-83
2023/03/24 03:55:40;;;;;;;8.93;3.07;;;15.30;71.80;;;;;;5014160;28;20463;-83
2023/03/24 03:58:10;;;;;;;5.63;2.90;;;15.30;71.70;;;;;;5000226;28;20476;-83
2023/03/24 04:00:48;;;;;;;7.17;3.60;;;15.30;71.70;;;;;;5008902;28;20481;-83
2023/03/24 04:04:07;;;;;;;7.47;3.23;;;15.30;71.70;;;;;;5014031;28;20488;-83
2023/03/24 04:07:08;;;;;;;6.90;3.40;;;15.40;71.60;;;;;;4988316;28;20517;-83
2023/03/24 04:09:50;;;;;;;4.90;2.90;;;15.30;71.60;;;;;;5016911;28;20466;-83
2023/03/24 04:12:47;;;;;;;5.73;3.03;;;15.30;71.60;;;;;;5015704;28;20450;-83
2023/03/24 04:15:44;;;;;;;5.80;3.00;;;15.30;71.70;;;;;;5015168;28;20560;-82
2023/03/24 04:18:43;;;;;;;6.43;3.37;;;15.20;71.70;;;;;;5014933;28;20462;-83
2023/03/24 04:21:32;;;;;;;6.90;3.30;;;15.20;71.80;;;;;;4997036;28;20463;-83
2023/03/24 04:24:18;;;;;;;6.30;3.20;;;15.20;71.80;;;;;;5011714;28;20532;-83
2023/03/24 04:26:59;;;;;;;7.67;3.23;;;15.20;71.90;;;;;;5016287;28;21382;-83
2023/03/24 04:29:41;;;;;;;5.43;2.73;;;15.20;71.80;;;;;;5004088;28;20861;-82
2023/03/24 04:32:18;;;;;;;7.13;3.17;;;15.20;71.80;;;;;;5000376;28;20476;-83
2023/03/24 04:34:53;;;;;;;6.50;3.60;;;15.20;71.90;;;;;;5015565;28;20463;-83
2023/03/24 04:37:49;;;;;;;6.23;3.20;;;15.20;71.80;;;;;;5015282;28;20465;-83
2023/03/24 04:40:25;;;;;;;6.53;3.20;;;15.30;71.80;;;;;;5016088;28;20453;-82
2023/03/24 04:42:56;;;;;;;9.23;3.10;;;15.30;71.80;;;;;;5017891;28;20484;-83
2023/03/24 04:45:32;;;;;;;5.90;3.20;;;15.30;71.70;;;;;;5016150;28;20804;-83
2023/03/24 04:48:20;;;;;;;5.67;3.20;;;15.30;71.80;;;;;;5014049;28;21254;-83
2023/03/24 04:51:03;;;;;;;6.77;3.70;;;15.30;71.70;;;;;;5013649;28;20519;-82
2023/03/24 04:53:49;;;;;;;5.87;3.47;;;15.30;71.70;;;;;;5015313;28;20509;-83
2023/03/24 04:56:30;;;;;;;6.13;3.00;;;15.30;71.70;;;;;;5011776;28;20453;-83
2023/03/24 04:59:05;;;;;;;6.63;2.90;;;15.40;71.60;;;;;;5015752;28;20458;-83
2023/03/24 05:01:36;;;;;;;5.90;3.07;;;15.40;71.60;;;;;;5015727;28;20560;-83
2023/03/24 05:04:27;;;;;;;6.27;3.13;;;15.40;71.50;;;;;;5010796;28;20602;-83
2023/03/24 05:06:58;;;;;;;7.80;2.53;;;15.40;71.60;;;;;;5009918;28;20537;-83
2023/03/24 05:09:30;;;;;;;6.40;2.97;;;15.40;71.70;;;;;;5012802;28;20462;-83
2023/03/24 05:11:59;;;;;;;6.70;4.00;;;15.40;71.90;;;;;;5009696;28;20489;-83
2023/03/24 05:14:31;;;;;;;6.83;3.83;;;15.30;72.10;;;;;;5013813;28;21077;-83
2023/03/24 05:17:00;;;;;;;6.90;3.93;;;15.40;72.20;;;;;;5006736;28;20649;-83
2023/03/24 05:19:31;;;;;;;7.00;4.00;;;15.40;72.30;;;;;;5001850;28;20467;-83
2023/03/24 05:21:59;;;;;;;6.77;3.47;;;15.40;72.50;;;;;;5015152;28;20465;-84
2023/03/24 05:24:27;;;;;;;8.13;3.93;;;15.30;72.60;;;;;;5015006;28;20481;-83
2023/03/24 05:26:55;;;;;;;6.40;3.80;;;15.30;72.80;;;;;;5015936;28;20460;-83
2023/03/24 05:29:25;;;;;;;7.60;4.10;;;15.30;72.90;;;;;;5017023;28;20466;-83
2023/03/24 05:31:53;;;;;;;8.17;4.43;;;15.30;73.10;;;;;;5012608;28;20574;-83
2023/03/24 05:34:22;;;;;;;7.83;4.10;;;15.20;73.40;;;;;;4994971;28;20463;-83
2023/03/24 05:37:15;;;;;;;6.60;3.60;;;15.30;73.50;;;;;;5010466;28;20940;-83
2023/03/24 05:39:47;;;;;;;7.40;3.60;;;15.20;73.90;;;;;;4998096;28;21136;-83
2023/03/24 05:42:35;;;;;;;10.23;3.83;;;15.20;73.80;;;;;;5013045;28;20840;-84
2023/03/24 05:45:06;;;;;;;6.50;3.90;;;15.20;74.00;;;;;;5016684;28;20459;-83
2023/03/24 05:47:34;;;;;;;9.30;4.33;;;15.20;74.20;;;;;;5017626;28;20467;-83
2023/03/24 05:50:03;;;;;;;6.83;3.80;;;15.20;74.40;;;;;;5016137;28;20449;-83
2023/03/24 05:52:34;;;;;;;6.60;3.87;;;15.10;74.60;;;;;;5016149;28;20460;-84
2023/03/24 05:55:20;;;;;;;7.80;4.13;;;15.10;74.80;;;;;;5012091;28;20455;-84
2023/03/24 05:57:54;;;;;;;6.37;3.90;;;15.10;74.90;;;;;;4998169;28;20492;-84
2023/03/24 06:00:35;;;;;;;7.03;3.83;;;15.10;75.20;;;;;;5009132;28;20476;-84
2023/03/24 06:03:12;;;;;;;7.90;4.53;;;15.10;75.20;;;;;;5011985;28;20474;-84
2023/03/24 06:05:46;;;;;;;7.33;3.97;;;15.10;75.50;;;;;;5007127;28;21432;-84
2023/03/24 06:08:17;;;;;;;7.30;4.27;;;15.00;75.70;;;;;;5012247;28;20494;-84
2023/03/24 06:10:47;;;;;;;8.00;4.20;;;15.00;76.00;;;;;;5018625;28;20464;-84
2023/03/24 06:13:15;;;;;;;7.00;4.33;;;15.00;76.00;;;;;;5016774;28;20469;-84
2023/03/24 06:15:46;;;;;;;6.73;3.93;;;15.00;76.20;;;;;;5013292;28;20478;-84
2023/03/24 06:18:33;;;;;;;9.80;4.33;;;15.00;76.30;;;;;;5012591;28;20547;-84
2023/03/24 06:21:11;;;;;;;6.77;4.53;;;15.00;76.50;;;;;;5012382;28;20455;-84
2023/03/24 06:23:42;;;;;;;7.37;4.63;;;15.00;76.60;;;;;;5016052;28;20472;-84
2023/03/24 06:26:13;;;;;;;7.40;4.67;;;15.00;76.70;;;;;;5016633;28;20463;-83
2023/03/24 06:28:54;;;;;;;7.77;4.90;;;15.00;76.90;;;;;;5014080;28;20727;-84
2023/03/24 06:31:28;;;;;;;10.50;5.10;;;15.00;77.00;;;;;;5015629;28;20483;-84
2023/03/24 06:34:02;;;;;;;9.90;4.80;;;14.90;77.10;;;;;;5007052;28;20468;-83
2023/03/24 06:36:30;;;;;;;8.23;5.40;;;15.00;77.20;;;;;;5013265;28;20541;-83
2023/03/24 06:39:01;;;;;;;9.43;5.60;;;15.00;77.30;;;;;;5013205;28;20659;-82
2023/03/24 06:41:30;;;;;;;9.23;5.03;;;15.00;77.40;;;;;;5012258;28;20790;-82
2023/03/24 06:44:01;;;;;;;8.80;5.00;;;15.00;77.50;;;;;;5010629;28;20559;-82
2023/03/24 06:46:29;;;;;;;8.23;5.00;;;15.00;77.50;;;;;;5012889;28;20454;-82
2023/03/24 06:48:57;;;;;;;7.77;4.97;;;14.90;77.60;;;;;;5006142;28;20456;-82
2023/03/24 06:51:25;;;;;;;7.30;4.63;;;14.90;77.70;;;;;;5012657;28;20993;-84
2023/03/24 06:53:54;;;;;;;8.67;4.87;;;14.90;77.80;;;;;;5017321;28;20487;-84
2023/03/24 06:56:25;;;;;;;6.50;4.20;;;14.90;77.80;;;;;;5011258;28;20458;-82
2023/03/24 06:58:57;;;;;;;8.10;4.30;;;14.90;77.90;;;;;;5009208;28;20607;-84
2023/03/24 07:01:30;;;;;;;8.87;4.70;;;14.90;78.00;;;;;;5014273;28;20535;-83
2023/03/24 07:04:13;;;;;;;7.50;4.73;;;14.90;78.00;;;;;;5010046;28;21275;-83
2023/03/24 07:06:59;;;;;;;9.83;5.00;;;14.90;78.10;;;;;;4998586;28;20992;-82
2023/03/24 07:09:53;;;;;;;7.37;4.37;;;14.90;78.20;;;;;;4996821;28;20947;-83
2023/03/24 07:12:23;;;;;;;9.77;4.73;;;14.90;78.40;;;;;;5005671;28;20476;-82
2023/03/24 07:14:52;;;;;;;7.10;4.30;;;14.90;78.50;;;;;;5014328;28;20480;-84
2023/03/24 07:17:21;;;;;;;6.27;4.43;;;14.90;78.50;;;;;;5008939;28;20543;-82
2023/03/24 07:20:15;;;;;;;9.03;5.27;;;14.90;78.70;;;;;;5007199;28;21046;-82
2023/03/24 07:22:55;;;;;;;7.23;4.97;;;14.90;78.70;;;;;;5010118;28;20636;-84
2023/03/24 07:25:26;;;;;;;7.20;4.77;;;14.90;78.70;;;;;;5008921;28;20484;-85
2023/03/24 07:28:14;;;;;;;10.17;4.77;;;14.90;78.80;;;;;;4993796;28;20505;-84
2023/03/24 07:30:43;;;;;;;9.13;4.90;;;14.90;79.00;;;;;;5007592;28;20501;-84
2023/03/24 07:33:12;;;;;;;7.40;4.90;;;14.90;79.10;;;;;;5014783;28;20593;-82
2023/03/24 07:35:43;;;;;;;8.23;5.67;;;14.80;79.20;;;;;;5007163;28;20510;-82
2023/03/24 07:38:12;;;;;;;8.90;5.50;;;14.90;79.20;;;;;;5004971;28;20813;-84
2023/03/24 07:40:41;;;;;;;7.83;4.97;;;14.90;79.00;;;;;;5003083;28;20462;-82
2023/03/24 07:43:08;;;;;;;8.80;5.30;;;14.80;79.30;;;;;;5010320;28;20453;-84
2023/03/24 07:45:56;;;;;;;6.60;4.57;;;14.90;79.30;;;;;;5007089;28;20945;-84
2023/03/24 07:48:29;;;;;;;8.20;5.33;;;14.80;79.40;;;;;;5012608;28;20473;-82
2023/03/24 07:50:57;;;;;;;10.03;5.80;;;14.80;79.50;;;;;;5011146;28;20456;-83
2023/03/24 07:53:46;;;;;;;10.63;5.67;;;14.80;79.50;;;;;;5013012;28;20475;-82
2023/03/24 07:56:23;;;;;;;9.53;5.00;;;14.90;79.50;;;;;;5015046;28;20467;-82
2023/03/24 07:58:55;;;;;;;7.93;5.33;;;14.90;79.60;;;;;;5010510;28;20456;-82
2023/03/24 08:01:57;;;;;;;8.53;5.77;;;14.90;79.60;;;;;;4997771;28;20526;-84
2023/03/24 08:04:38;;;;;;;8.87;6.20;;;14.90;79.50;;;;;;5008735;28;20571;-84
2023/03/24 08:07:26;;;;;;;11.07;6.40;;;14.90;79.40;;;;;;5011255;28;20458;-83
2023/03/24 08:09:55;;;;;;;9.30;6.47;;;14.90;79.50;;;;;;5012315;28;20460;-83
2023/03/24 08:12:23;;;;;;;10.93;6.03;;;14.90;79.60;;;;;;5012703;28;20456;-84
2023/03/24 08:14:51;;;;;;;12.10;6.53;;;14.90;79.70;;;;;;5011602;28;20496;-83
2023/03/24 08:17:21;;;;;;;9.00;5.90;;;14.90;79.80;;;;;;4990093;28;20804;-83
2023/03/24 08:19:49;;;;;;;8.93;6.80;;;14.90;79.90;;;;;;5011625;28;20458;-84
2023/03/24 08:22:28;;;;;;;10.27;6.60;;;15.00;80.00;;;;;;5012443;28;20466;-83
2023/03/24 08:24:56;;;;;;;8.53;6.10;;;15.10;79.90;;;;;;5013596;28;20667;-83
2023/03/24 08:27:24;;;;;;;10.67;7.10;;;15.10;79.90;;;;;;4993853;28;20454;-83
2023/03/24 08:29:52;;;;;;;8.73;6.67;;;15.10;80.00;;;;;;5016055;28;20808;-83
2023/03/24 08:32:22;;;;;;;12.90;7.87;;;15.20;80.10;;;;;;5008623;28;20476;-83
2023/03/24 08:34:53;;;;;;;10.43;8.00;;;15.20;80.00;;;;;;4993910;28;20522;-83
2023/03/24 08:37:22;;;;;;;15.53;9.57;;;15.20;80.00;;;;;;5007392;28;20460;-83
2023/03/24 08:39:52;;;;;;;11.53;9.30;;;15.20;80.00;;;;;;5010595;28;20479;-83
2023/03/24 08:42:20;;;;;;;16.13;10.83;;;15.20;80.00;;;;;;5017060;28;20448;-84
2023/03/24 08:44:48;;;;;;;15.80;10.20;;;15.20;79.90;;;;;;5016686;28;20483;-83
2023/03/24 08:47:16;;;;;;;10.33;8.60;;;15.20;79.90;;;;;;5016996;28;20456;-84
2023/03/24 08:49:45;;;;;;;11.63;9.10;;;15.20;79.90;;;;;;5013027;28;20511;-84
2023/03/24 08:52:16;;;;;;;10.37;7.90;;;15.20;79.90;;;;;;5006304;28;20496;-84
2023/03/24 08:54:44;;;;;;;15.57;7.83;;;15.20;80.10;;;;;;4997019;28;20467;-82
2023/03/24 08:57:12;;;;;;;9.10;7.27;;;15.20;80.10;;;;;;5007149;28;20452;-82
2023/03/24 08:59:41;;;;;;;8.10;5.90;;;15.10;80.10;;;;;;5008869;28;20457;-84
2023/03/24 09:02:10;;;;;;;9.60;6.17;;;15.20;80.10;;;;;;5017996;28;20479;-82
2023/03/24 09:04:38;;;;;;;11.90;6.57;;;15.20;80.00;;;;;;4998223;28;20499;-84
2023/03/24 09:07:09;;;;;;;11.10;6.20;;;15.20;80.10;;;;;;5016626;28;20475;-84
2023/03/24 09:09:38;;;;;;;10.33;5.83;;;15.10;80.20;;;;;;5013348;28;20528;-85
2023/03/24 09:12:08;;;;;;;10.73;5.77;;;15.20;80.20;;;;;;5012907;28;20457;-82
2023/03/24 09:14:36;;;;;;;9.23;5.67;;;15.10;80.30;;;;;;5010928;28;20476;-84
2023/03/24 09:17:04;;;;;;;7.10;5.10;;;15.10;80.30;;;;;;5009636;28;20461;-84
2023/03/24 09:19:32;;;;;;;8.20;5.83;;;15.10;80.40;;;;;;4994689;28;20453;-83
2023/03/24 09:22:00;;;;;;;8.17;5.63;;;15.10;80.50;;;;;;5015982;28;20577;-82
2023/03/24 09:24:44;;;;;;;7.97;5.40;;;15.10;80.60;;;;;;5015860;28;20474;-84
2023/03/24 09:27:12;;;;;;;7.90;5.10;;;15.10;80.90;;;;;;5016947;28;20453;-83
2023/03/24 09:29:40;;;;;;;7.10;4.50;;;15.20;80.90;;;;;;5015636;28;20476;-83
2023/03/24 09:32:08;;;;;;;6.63;4.43;;;15.20;80.80;;;;;;5013637;28;20474;-84
2023/03/24 09:34:37;;;;;;;7.63;5.23;;;15.30;80.80;;;;;;5012414;28;20459;-82
2023/03/24 09:37:05;;;;;;;6.73;4.23;;;15.20;80.90;;;;;;5013239;28;20448;-83
2023/03/24 09:39:35;;;;;;;8.10;4.57;;;15.30;80.90;;;;;;5015112;28;20457;-83
2023/03/24 09:42:07;;;;;;;6.77;4.77;;;15.30;81.00;;;;;;5014682;28;20556;-83
2023/03/24 09:44:40;;;;;;;7.50;4.43;;;15.30;81.00;;;;;;5014119;28;20468;-83
2023/03/24 09:47:19;;;;;;;5.77;3.90;;;15.30;80.90;;;;;;4995385;28;20463;-83
2023/03/24 09:49:49;;;;;;;7.20;3.77;;;15.30;80.90;;;;;;5010516;28;20458;-82
2023/03/24 09:52:23;;;;;;;5.63;3.70;;;15.30;81.10;;;;;;5007509;28;20465;-84
2023/03/24 09:54:54;;;;;;;5.30;3.30;;;15.30;81.10;;;;;;5008509;28;20450;-83
2023/03/24 09:57:27;;;;;;;5.87;3.93;;;15.30;81.00;;;;;;4998230;28;20452;-84
2023/03/24 09:59:55;;;;;;;6.03;3.57;;;15.30;81.10;;;;;;4995776;28;20467;-82
2023/03/24 10:02:23;;;;;;;5.50;3.30;;;15.30;81.00;;;;;;5011603;28;20477;-84
2023/03/24 10:04:51;;;;;;;6.10;3.70;;;15.30;81.00;;;;;;5014143;28;20462;-82
2023/03/24 10:07:24;;;;;;;6.33;3.90;;;15.40;80.90;;;;;;5007413;28;20460;-83
2023/03/24 10:09:59;;;;;;;5.50;3.30;;;15.40;81.10;;;;;;5011675;28;20463;-84
2023/03/24 10:12:36;;;;;;;6.13;3.20;;;15.60;81.20;;;;;;5012403;28;20462;-84
2023/03/24 10:15:20;;;;;;;5.50;3.23;;;15.60;81.10;;;;;;5010730;28;20822;-84
2023/03/24 10:18:21;;;;;;;5.97;3.40;;;15.70;81.10;;;;;;5010853;28;20622;-83
2023/03/24 10:20:54;;;;;;;4.93;2.90;;;15.90;80.90;;;;;;5012790;28;20478;-83
2023/03/24 10:23:31;;;;;;;5.53;2.93;;;15.90;80.90;;;;;;5005110;28;21053;-84
2023/03/24 10:26:09;;;;;;;8.40;3.30;;;16.00;80.70;;;;;;5013228;28;20462;-83
2023/03/24 10:28:44;;;;;;;7.40;3.53;;;16.00;80.60;;;;;;5007346;28;20461;-84
2023/03/24 10:31:15;;;;;;;5.67;2.83;;;16.10;80.60;;;;;;5008785;28;20480;-83
2023/03/24 10:33:46;;;;;;;4.90;3.10;;;16.10;80.50;;;;;;5008368;28;20493;-83
2023/03/24 10:36:17;;;;;;;6.27;3.10;;;16.10;80.40;;;;;;5011275;28;20722;-83
2023/03/24 10:38:46;;;;;;;5.10;2.80;;;16.20;80.20;;;;;;5009022;28;20461;-83
2023/03/24 10:41:19;;;;;;;6.27;3.07;;;16.10;80.20;;;;;;5011271;28;20463;-83
2023/03/24 10:43:52;;;;;;;5.63;3.17;;;16.10;80.10;;;;;;5013474;28;20459;-84
2023/03/24 10:46:22;;;;;;;5.60;2.73;;;16.10;80.10;;;;;;5011301;28;20484;-83
2023/03/24 10:48:51;;;;;;;5.23;2.77;;;16.00;80.20;;;;;;5019328;28;20443;-83
2023/03/24 10:51:21;;;;;;;5.13;2.70;;;16.00;80.40;;;;;;5012048;28;20479;-83
2023/03/24 10:54:10;;;;;;;4.90;2.53;;;16.10;80.20;;;;;;5014416;28;20456;-84
2023/03/24 10:56:40;;;;;;;4.33;2.40;;;16.10;80.10;;;;;;5013183;28;20459;-84
2023/03/24 10:59:26;;;;;;;5.33;2.77;;;16.10;80.30;;;;;;5010767;28;20539;-83
2023/03/24 11:02:05;;;;;;;5.40;3.00;;;16.10;80.30;;;;;;4997113;28;20493;-84
2023/03/24 11:04:33;;;;;;;6.70;3.40;;;16.10;80.30;;;;;;5012956;28;20464;-83
2023/03/24 11:07:05;;;;;;;5.43;3.23;;;16.10;80.30;;;;;;5007537;28;20467;-84
2023/03/24 11:09:41;;;;;;;5.00;3.17;;;16.20;80.40;;;;;;5007142;28;20545;-83
2023/03/24 11:12:22;;;;;;;5.10;2.47;;;16.20;80.50;;;;;;5010857;28;20453;-83
2023/03/24 11:14:59;;;;;;;4.50;2.67;;;16.20;80.30;;;;;;5011632;28;20466;-84
2023/03/24 11:17:45;;;;;;;4.40;2.67;;;16.30;80.10;;;;;;5014635;28;20487;-84
2023/03/24 11:20:17;;;;;;;4.13;2.30;;;16.20;80.40;;;;;;5015954;28;20951;-84
2023/03/24 11:23:06;;;;;;;5.33;2.30;;;16.20;80.50;;;;;;5013768;28;20535;-83
2023/03/24 11:25:37;;;;;;;5.00;2.00;;;16.20;80.60;;;;;;4998604;28;20448;-83
2023/03/24 11:28:08;;;;;;;5.83;2.97;;;16.30;80.40;;;;;;5005347;28;20442;-83
2023/03/24 11:30:47;;;;;;;6.57;2.60;;;16.30;80.30;;;;;;5012341;28;20490;-83
2023/03/24 11:33:22;;;;;;;3.93;2.03;;;16.30;80.30;;;;;;5013700;28;20545;-84
2023/03/24 11:36:09;;;;;;;4.30;2.10;;;16.20;80.50;;;;;;5010879;28;20969;-84
2023/03/24 11:38:39;;;;;;;4.03;2.23;;;16.30;80.30;;;;;;5017664;28;20455;-84
2023/03/24 11:41:21;;;;;;;4.70;2.40;;;16.20;80.60;;;;;;5013233;28;20461;-84
2023/03/24 11:43:49;;;;;;;4.00;2.13;;;16.20;80.80;;;;;;5009639;28;20547;-84
2023/03/24 11:46:22;;;;;;;5.50;2.30;;;16.20;80.80;;;;;;4995007;28;20480;-83
2023/03/24 11:48:54;;;;;;;4.17;2.30;;;16.30;80.70;;;;;;5012625;28;20461;-83
2023/03/24 11:51:28;;;;;;;5.00;2.27;;;16.30;80.50;;;;;;5009779;28;20463;-85
2023/03/24 11:53:58;;;;;;;4.90;2.40;;;16.40;80.30;;;;;;4992232;28;20457;-83
2023/03/24 11:56:39;;;;;;;7.70;2.30;;;16.30;80.30;;;;;;5013634;28;20450;-83
2023/03/24 11:59:13;;;;;;;5.00;2.30;;;16.20;80.50;;;;;;5009393;28;20521;-84
2023/03/24 12:01:50;;;;;;;5.03;1.37;;;16.20;80.60;;;;;;5011310;28;20474;-84
2023/03/24 12:04:29;;;;;;;4.73;1.30;;;16.10;79.90;;;;;;5010380;28;20448;-84
2023/03/24 12:07:31;;;;;;;5.13;1.00;;;15.90;79.60;;;;;;5005859;28;20476;-83
2023/03/24 12:10:20;;;;;;;7.20;1.10;;;15.80;79.30;;;;;;5007588;28;20456;-85
2023/03/24 12:12:57;;;;;;;5.20;0.80;;;15.60;79.20;;;;;;5012149;28;20464;-84
2023/03/24 12:15:37;;;;;;;3.93;1.23;;;15.40;79.40;;;;;;5012564;28;20475;-84
2023/03/24 12:18:33;;;;;;;4.50;1.20;;;15.30;79.40;;;;;;5013417;28;20473;-84
2023/03/24 12:21:08;;;;;;;5.90;1.20;;;15.30;79.20;;;;;;5010119;28;20457;-85
2023/03/24 12:23:42;;;;;;;4.77;0.80;;;15.20;79.10;;;;;;5015036;28;20447;-85
2023/03/24 12:26:23;;;;;;;6.37;0.90;;;15.20;79.20;;;;;;5017243;28;20495;-83
2023/03/24 12:29:23;;;;;;;3.47;0.80;;;15.10;79.10;;;;;;5006334;28;20459;-84
2023/03/24 12:32:09;;;;;;;4.90;1.27;;;15.10;79.20;;;;;;5000886;28;20504;-85
2023/03/24 12:35:20;;;;;;;3.77;1.10;;;15.10;79.20;;;;;;5011714;28;20468;-84
2023/03/24 12:38:20;;;;;;;5.20;1.10;;;15.10;79.10;;;;;;5002047;28;20486;-86
2023/03/24 12:41:31;;;;;;;3.50;0.80;;;15.10;79.20;;;;;;4993081;28;21018;-86
2023/03/24 12:44:33;;;;;;;4.17;0.97;;;15.20;79.20;;;;;;4925206;29;20457;-84
2023/03/24 12:47:22;;;;;;;3.50;0.80;;;15.20;79.20;;;;;;5007221;28;20529;-84
2023/03/24 12:50:10;;;;;;;3.40;0.60;;;15.20;79.10;;;;;;5013553;28;20453;-84
2023/03/24 12:53:16;;;;;;;3.00;0.70;;;15.20;79.00;;;;;;5013728;28;20514;-84
2023/03/24 13:00:22;;;;;;;3.90;0.90;;;15.20;79.00;;;;;;5011691;28;21076;-83
2023/03/24 13:02:54;;;;;;;5.63;0.93;;;15.30;79.00;;;;;;5015995;28;21269;-86
2023/03/24 13:05:29;;;;;;;4.53;1.00;;;15.20;79.00;;;;;;5015188;28;20459;-84
2023/03/24 13:08:02;;;;;;;4.90;1.10;;;15.30;78.90;;;;;;5015080;28;20579;-85
2023/03/24 13:10:33;;;;;;;3.60;0.70;;;15.30;78.80;;;;;;5014593;28;20463;-86
2023/03/24 13:13:06;;;;;;;4.47;0.80;;;15.30;78.80;;;;;;5014459;28;20466;-84
2023/03/24 13:15:41;;;;;;;4.13;0.90;;;15.30;78.80;;;;;;5015381;28;20471;-83
2023/03/24 13:18:25;;;;;;;3.67;0.97;;;15.30;78.90;;;;;;5009139;28;20517;-84
2023/03/24 13:20:56;;;;;;;4.90;0.80;;;15.30;78.80;;;;;;5016921;28;20463;-84
2023/03/24 13:23:36;;;;;;;3.20;0.80;;;15.30;78.90;;;;;;5016334;28;20484;-83
2023/03/24 13:26:13;;;;;;;4.00;1.13;;;15.40;78.90;;;;;;5011499;28;20461;-84
2023/03/24 13:28:50;;;;;;;4.73;0.83;;;15.40;78.80;;;;;;5011628;28;20513;-84
2023/03/24 13:31:22;;;;;;;5.00;1.00;;;15.40;78.80;;;;;;5015927;28;20515;-85
2023/03/24 13:33:51;;;;;;;6.70;1.50;;;15.40;78.90;;;;;;5015793;28;20548;-84